createdAt,value
2023-05-20T00:00:58.692Z,78.56
2023-05-20T00:01:58.660Z,78.09
2023-05-20T00:02:58.709Z,78.16
2023-05-20T00:03:58.733Z,77.55
2023-05-20T00:04:58.728Z,78.39
2023-05-20T00:05:58.614Z,78.87
2023-05-20T00:06:58.663Z,78.70
2023-05-20T00:07:58.608Z,79.00
2023-05-20T00:08:58.625Z,78.60
2023-05-20T00:09:58.585Z,78.66
2023-05-20T00:10:58.603Z,78.70
2023-05-20T00:11:58.563Z,77.85
2023-05-20T00:12:58.568Z,78.46
2023-05-20T00:13:58.544Z,78.05
2023-05-20T00:14:58.588Z,78.56
2023-05-20T00:15:58.593Z,78.46
2023-05-20T00:16:58.567Z,78.60
2023-05-20T00:17:58.585Z,78.97
2023-05-20T00:18:58.608Z,78.16
2023-05-20T00:19:58.492Z,78.26
2023-05-20T00:20:58.521Z,78.60
2023-05-20T00:21:58.474Z,78.39
2023-05-20T00:22:58.486Z,78.91
2023-05-20T00:23:58.462Z,78.80
2023-05-20T00:24:58.472Z,78.87
2023-05-20T00:26:00.617Z,78.50
2023-05-20T00:26:58.499Z,78.50
2023-05-20T00:27:58.449Z,78.91
2023-05-20T00:28:58.448Z,78.70
2023-05-20T00:29:58.457Z,78.60
2023-05-20T00:30:58.435Z,78.80
2023-05-20T00:31:58.470Z,78.19
2023-05-20T00:32:58.464Z,78.80
2023-05-20T00:33:58.397Z,78.50
2023-05-20T00:34:58.460Z,79.04
2023-05-20T00:35:58.375Z,79.00
2023-05-20T00:36:58.392Z,79.00
2023-05-20T00:37:58.416Z,78.60
2023-05-20T00:38:58.427Z,79.41
2023-05-20T00:39:58.347Z,78.70
2023-05-20T00:40:58.357Z,78.80
2023-05-20T00:41:58.318Z,78.70
2023-05-20T00:42:58.345Z,79.00
2023-05-20T00:43:58.338Z,79.00
2023-05-20T00:44:58.317Z,79.11
2023-05-20T00:45:58.367Z,79.07
2023-05-20T00:46:58.304Z,79.07
2023-05-20T00:47:58.298Z,79.21
2023-05-20T00:48:58.316Z,79.32
2023-05-20T00:49:58.266Z,79.41
2023-05-20T00:50:58.280Z,79.11
2023-05-20T00:51:58.263Z,79.72
2023-05-20T00:52:58.287Z,79.66
2023-05-20T00:53:58.243Z,79.52
2023-05-20T00:54:58.252Z,79.45
2023-05-20T00:55:58.242Z,80.43
2023-05-20T00:56:58.237Z,80.13
2023-05-20T00:57:58.233Z,80.64
2023-05-20T00:58:58.231Z,80.43
2023-05-20T00:59:58.185Z,79.66
2023-05-20T01:00:58.239Z,79.82
2023-05-20T01:01:58.185Z,80.37
2023-05-20T01:02:58.275Z,80.27
2023-05-20T01:03:58.200Z,80.23
2023-05-20T01:04:58.171Z,80.78
2023-05-20T01:05:58.195Z,80.78
2023-05-20T01:06:58.170Z,80.47
2023-05-20T01:07:58.133Z,80.47
2023-05-20T01:08:58.141Z,80.02
2023-05-20T01:09:58.154Z,80.78
2023-05-20T01:10:58.121Z,80.16
2023-05-20T01:11:58.103Z,81.29
2023-05-20T01:12:58.111Z,80.98
2023-05-20T01:13:58.094Z,80.57
2023-05-20T01:14:58.097Z,81.18
2023-05-20T01:15:58.103Z,80.57
2023-05-20T01:16:58.096Z,80.47
2023-05-20T01:17:58.115Z,79.96
2023-05-20T01:18:58.121Z,80.98
2023-05-20T01:19:58.030Z,80.57
2023-05-20T01:20:58.060Z,81.29
2023-05-20T01:21:58.072Z,81.29
2023-05-20T01:22:58.033Z,81.90
2023-05-20T01:23:58.032Z,81.09
2023-05-20T01:24:58.043Z,82.04
2023-05-20T01:25:58.009Z,81.70
2023-05-20T01:26:58.005Z,81.09
2023-05-20T01:27:58.182Z,81.29
2023-05-20T01:28:58.109Z,81.53
2023-05-20T01:29:57.962Z,81.73
2023-05-20T01:30:57.978Z,82.00
2023-05-20T01:31:57.985Z,82.24
2023-05-20T01:32:57.983Z,82.14
2023-05-20T01:33:57.951Z,81.32
2023-05-20T01:34:57.941Z,81.53
2023-05-20T01:35:57.921Z,82.10
2023-05-20T01:36:57.948Z,81.39
2023-05-20T01:37:57.977Z,81.80
2023-05-20T01:38:57.909Z,81.32
2023-05-20T01:39:57.901Z,81.90
2023-05-20T01:40:57.899Z,82.04
2023-05-20T01:41:57.890Z,81.94
2023-05-20T01:42:57.888Z,81.90
2023-05-20T01:43:57.881Z,81.94
2023-05-20T01:44:57.892Z,82.00
2023-05-20T01:45:57.838Z,81.90
2023-05-20T01:46:57.926Z,81.70
2023-05-20T01:47:57.831Z,82.31
2023-05-20T01:48:57.872Z,82.21
2023-05-20T01:49:57.822Z,82.31
2023-05-20T01:50:57.837Z,81.80
2023-05-20T01:51:57.805Z,81.29
2023-05-20T01:52:57.823Z,81.80
2023-05-20T01:53:57.793Z,82.00
2023-05-20T01:54:57.833Z,81.29
2023-05-20T01:55:57.774Z,82.31
2023-05-20T01:56:57.801Z,82.14
2023-05-20T01:57:57.806Z,81.84
2023-05-20T01:58:57.779Z,81.94
2023-05-20T01:59:57.736Z,82.35
2023-05-20T02:00:57.781Z,82.24
2023-05-20T02:01:57.767Z,82.10
2023-05-20T02:02:57.792Z,82.00
2023-05-20T02:03:57.723Z,82.10
2023-05-20T02:04:57.742Z,81.80
2023-05-20T02:05:57.875Z,82.14
2023-05-20T02:06:57.736Z,82.00
2023-05-20T02:07:57.699Z,81.94
2023-05-20T02:08:57.692Z,81.80
2023-05-20T02:09:57.667Z,82.10
2023-05-20T02:10:57.699Z,82.31
2023-05-20T02:11:57.672Z,82.04
2023-05-20T02:12:57.699Z,82.86
2023-05-20T02:13:57.656Z,83.98
2023-05-20T02:14:57.642Z,83.37
2023-05-20T02:15:57.660Z,83.67
2023-05-20T02:16:57.843Z,82.75
2023-05-20T02:17:57.636Z,83.16
2023-05-20T02:18:57.633Z,83.26
2023-05-20T02:19:57.616Z,82.82
2023-05-20T02:20:57.602Z,82.86
2023-05-20T02:21:57.582Z,82.86
2023-05-20T02:22:57.606Z,83.16
2023-05-20T02:23:57.594Z,83.26
2023-05-20T02:24:57.621Z,83.26
2023-05-20T02:25:57.558Z,83.26
2023-05-20T02:26:57.563Z,82.96
2023-05-20T02:27:57.541Z,83.47
2023-05-20T02:28:57.549Z,83.26
2023-05-20T02:29:57.545Z,83.37
2023-05-20T02:30:57.534Z,82.96
2023-05-20T02:31:57.510Z,83.16
2023-05-20T02:32:57.560Z,82.96
2023-05-20T02:33:57.537Z,82.96
2023-05-20T02:34:57.555Z,83.47
2023-05-20T02:35:57.487Z,83.87
2023-05-20T02:36:57.498Z,84.08
2023-05-20T02:37:57.493Z,83.78
2023-05-20T02:38:57.508Z,84.18
2023-05-20T02:39:57.467Z,84.08
2023-05-20T02:40:57.493Z,84.28
2023-05-20T02:41:57.444Z,84.28
2023-05-20T02:42:57.459Z,83.87
2023-05-20T02:43:57.450Z,83.98
2023-05-20T02:44:57.435Z,84.18
2023-05-20T02:45:57.443Z,84.69
2023-05-20T02:46:57.454Z,84.08
2023-05-20T02:47:57.462Z,83.67
2023-05-20T02:48:57.415Z,83.98
2023-05-20T02:49:57.414Z,84.39
2023-05-20T02:50:57.399Z,83.87
2023-05-20T02:51:57.407Z,83.98
2023-05-20T02:52:57.402Z,83.87
2023-05-20T02:53:57.364Z,84.08
2023-05-20T02:54:57.376Z,83.92
2023-05-20T02:55:57.346Z,83.81
2023-05-20T02:56:57.349Z,83.92
2023-05-20T02:57:57.366Z,83.87
2023-05-20T02:58:57.373Z,85.24
2023-05-20T02:59:57.320Z,84.39
2023-05-20T03:00:57.470Z,85.10
2023-05-20T03:01:57.446Z,84.74
2023-05-20T03:02:57.357Z,84.74
2023-05-20T03:03:57.296Z,84.94
2023-05-20T03:04:57.408Z,85.14
2023-05-20T03:05:57.301Z,84.63
2023-05-20T03:06:57.287Z,84.63
2023-05-20T03:07:57.260Z,84.80
2023-05-20T03:08:57.276Z,84.42
2023-05-20T03:09:57.263Z,84.53
2023-05-20T03:10:57.252Z,84.49
2023-05-20T03:11:57.251Z,84.49
2023-05-20T03:12:57.244Z,84.94
2023-05-20T03:13:57.240Z,84.42
2023-05-20T03:14:57.231Z,84.53
2023-05-20T03:15:57.260Z,84.83
2023-05-20T03:16:57.213Z,85.04
2023-05-20T03:17:57.247Z,84.94
2023-05-20T03:18:57.256Z,84.74
2023-05-20T03:19:57.217Z,84.63
2023-05-20T03:20:57.196Z,84.83
2023-05-20T03:21:57.174Z,84.94
2023-05-20T03:22:57.176Z,84.94
2023-05-20T03:23:57.149Z,85.04
2023-05-20T03:24:57.204Z,84.83
2023-05-20T03:25:57.125Z,85.24
2023-05-20T03:26:57.172Z,84.83
2023-05-20T03:27:57.113Z,84.94
2023-05-20T03:28:57.160Z,84.94
2023-05-20T03:29:57.106Z,85.96
2023-05-20T03:30:57.215Z,85.14
2023-05-20T03:31:57.098Z,84.94
2023-05-20T03:32:57.168Z,84.74
2023-05-20T03:33:57.102Z,84.74
2023-05-20T03:34:57.082Z,85.04
2023-05-20T03:35:57.076Z,84.94
2023-05-20T03:36:57.106Z,85.86
2023-05-20T03:37:57.053Z,85.65
2023-05-20T03:38:57.052Z,86.06
2023-05-20T03:39:57.059Z,85.75
2023-05-20T03:40:57.044Z,86.30
2023-05-20T03:41:57.018Z,85.75
2023-05-20T03:42:57.030Z,86.06
2023-05-20T03:43:56.997Z,86.06
2023-05-20T03:44:57.002Z,86.67
2023-05-20T03:45:57.006Z,85.96
2023-05-20T03:46:57.122Z,86.36
2023-05-20T03:47:57.021Z,86.57
2023-05-20T03:48:56.989Z,86.98
2023-05-20T03:49:56.972Z,85.96
2023-05-20T03:50:56.985Z,86.16
2023-05-20T03:51:56.949Z,85.65
2023-05-20T03:52:56.955Z,85.86
2023-05-20T03:53:56.922Z,85.86
2023-05-20T03:54:56.937Z,85.86
2023-05-20T03:55:56.907Z,86.00
2023-05-20T03:56:56.930Z,85.86
2023-05-20T03:57:56.894Z,86.06
2023-05-20T03:58:56.898Z,86.16
2023-05-20T03:59:56.897Z,86.88
2023-05-20T04:00:56.903Z,86.36
2023-05-20T04:01:56.922Z,86.26
2023-05-20T04:02:57.000Z,86.88
2023-05-20T04:03:56.897Z,86.67
2023-05-20T04:04:56.859Z,86.36
2023-05-20T04:05:56.852Z,86.36
2023-05-20T04:06:56.847Z,86.98
2023-05-20T04:07:56.843Z,86.16
2023-05-20T04:08:56.848Z,86.67
2023-05-20T04:09:56.824Z,86.26
2023-05-20T04:10:56.830Z,86.36
2023-05-20T04:11:56.820Z,86.67
2023-05-20T04:12:56.839Z,86.67
2023-05-20T04:13:56.789Z,86.67
2023-05-20T04:14:56.794Z,86.16
2023-05-20T04:15:56.776Z,86.77
2023-05-20T04:16:56.805Z,86.30
2023-05-20T04:17:56.799Z,86.26
2023-05-20T04:18:56.808Z,86.67
2023-05-20T04:19:56.775Z,86.41
2023-05-20T04:20:56.749Z,86.47
2023-05-20T04:21:56.724Z,86.36
2023-05-20T04:22:56.739Z,86.57
2023-05-20T04:23:56.734Z,86.47
2023-05-20T04:24:56.732Z,86.41
2023-05-20T04:25:56.699Z,86.57
2023-05-20T04:26:56.706Z,86.67
2023-05-20T04:27:56.733Z,86.36
2023-05-20T04:28:56.695Z,86.57
2023-05-20T04:29:56.695Z,86.67
2023-05-20T04:30:56.694Z,86.47
2023-05-20T04:31:56.682Z,86.88
2023-05-20T04:32:56.711Z,86.88
2023-05-20T04:33:56.650Z,86.57
2023-05-20T04:34:56.657Z,86.91
2023-05-20T04:35:56.645Z,86.06
2023-05-20T04:36:56.648Z,86.88
2023-05-20T04:37:56.603Z,86.67
2023-05-20T04:38:56.662Z,86.57
2023-05-20T04:39:56.601Z,86.67
2023-05-20T04:40:56.599Z,86.77
2023-05-20T04:41:56.601Z,86.36
2023-05-20T04:42:56.600Z,86.57
2023-05-20T04:43:56.556Z,86.16
2023-05-20T04:44:56.563Z,86.57
2023-05-20T04:45:56.557Z,86.36
2023-05-20T04:46:56.554Z,86.98
2023-05-20T04:47:56.616Z,87.08
2023-05-20T04:48:56.536Z,86.88
2023-05-20T04:49:56.526Z,86.36
2023-05-20T04:50:56.562Z,86.77
2023-05-20T04:51:56.516Z,86.57
2023-05-20T04:52:56.528Z,86.26
2023-05-20T04:53:56.486Z,86.26
2023-05-20T04:54:56.520Z,87.49
2023-05-20T04:55:56.479Z,88.00
2023-05-20T04:56:56.479Z,86.88
2023-05-20T04:57:56.464Z,86.36
2023-05-20T04:58:56.490Z,87.08
2023-05-20T04:59:56.468Z,87.79
2023-05-20T05:00:56.475Z,86.94
2023-05-20T05:01:56.508Z,86.36
2023-05-20T05:02:56.470Z,86.67
2023-05-20T05:03:56.426Z,87.18
2023-05-20T05:04:56.543Z,86.67
2023-05-20T05:05:56.402Z,87.08
2023-05-20T05:06:56.416Z,86.47
2023-05-20T05:07:56.445Z,86.67
2023-05-20T05:08:56.457Z,87.79
2023-05-20T05:09:56.388Z,87.96
2023-05-20T05:10:56.397Z,86.47
2023-05-20T05:11:56.394Z,88.00
2023-05-20T05:12:56.416Z,86.36
2023-05-20T05:13:56.362Z,86.36
2023-05-20T05:14:56.399Z,86.43
2023-05-20T05:15:56.386Z,86.67
2023-05-20T05:16:56.364Z,86.77
2023-05-20T05:17:56.431Z,86.47
2023-05-20T05:18:56.400Z,86.57
2023-05-20T05:19:56.328Z,88.10
2023-05-20T05:20:56.321Z,86.36
2023-05-20T05:21:56.293Z,86.26
2023-05-20T05:22:56.294Z,86.47
2023-05-20T05:23:58.368Z,86.26
2023-05-20T05:24:56.333Z,87.59
2023-05-20T05:25:56.274Z,88.00
2023-05-20T05:26:56.268Z,87.70
2023-05-20T05:27:56.250Z,88.00
2023-05-20T05:28:56.292Z,88.20
2023-05-20T05:29:56.234Z,87.70
2023-05-20T05:30:56.257Z,87.90
2023-05-20T05:31:56.239Z,87.79
2023-05-20T05:32:56.415Z,87.70
2023-05-20T05:33:56.217Z,88.00
2023-05-20T05:34:56.237Z,87.90
2023-05-20T05:35:56.193Z,87.94
2023-05-20T05:36:56.218Z,87.29
2023-05-20T05:37:56.158Z,88.10
2023-05-20T05:38:56.173Z,87.38
2023-05-20T05:39:56.142Z,88.00
2023-05-20T05:40:56.161Z,87.63
2023-05-20T05:41:56.164Z,88.24
2023-05-20T05:42:56.171Z,87.79
2023-05-20T05:43:56.119Z,88.20
2023-05-20T05:44:56.121Z,88.00
2023-05-20T05:45:56.117Z,87.90
2023-05-20T05:46:56.149Z,88.76
2023-05-20T05:47:56.128Z,88.41
2023-05-20T05:48:56.133Z,88.00
2023-05-20T05:49:56.128Z,87.90
2023-05-20T05:50:56.084Z,88.00
2023-05-20T05:51:56.059Z,87.90
2023-05-20T05:52:56.062Z,87.90
2023-05-20T05:53:56.050Z,87.73
2023-05-20T05:54:56.058Z,87.94
2023-05-20T05:55:56.051Z,88.55
2023-05-20T05:56:56.066Z,88.14
2023-05-20T05:57:56.033Z,88.04
2023-05-20T05:58:56.019Z,88.55
2023-05-20T05:59:56.003Z,88.04
2023-05-20T06:00:56.066Z,88.04
2023-05-20T06:01:56.032Z,88.24
2023-05-20T06:02:56.120Z,88.35
2023-05-20T06:03:56.106Z,88.55
2023-05-20T06:04:55.975Z,88.45
2023-05-20T06:05:55.962Z,89.06
2023-05-20T06:06:55.969Z,88.76
2023-05-20T06:07:55.952Z,88.45
2023-05-20T06:08:56.015Z,88.24
2023-05-20T06:09:55.974Z,88.45
2023-05-20T06:10:55.946Z,88.55
2023-05-20T06:11:55.995Z,88.24
2023-05-20T06:12:55.943Z,88.51
2023-05-20T06:13:55.911Z,88.65
2023-05-20T06:14:55.913Z,88.92
2023-05-20T06:15:55.869Z,88.76
2023-05-20T06:16:55.956Z,89.26
2023-05-20T06:17:55.920Z,89.47
2023-05-20T06:18:55.925Z,89.67
2023-05-20T06:19:55.848Z,89.17
2023-05-20T06:20:55.845Z,89.58
2023-05-20T06:21:55.840Z,89.78
2023-05-20T06:22:55.830Z,89.37
2023-05-20T06:23:55.847Z,89.17
2023-05-20T06:24:55.822Z,89.17
2023-05-20T06:25:55.810Z,88.96
2023-05-20T06:26:55.834Z,89.37
2023-05-20T06:27:55.787Z,88.76
2023-05-20T06:28:55.808Z,89.06
2023-05-20T06:29:55.801Z,88.76
2023-05-20T06:30:55.822Z,89.06
2023-05-20T06:31:55.762Z,88.65
2023-05-20T06:32:55.790Z,88.24
2023-05-20T06:33:55.759Z,89.32
2023-05-20T06:34:55.763Z,89.37
2023-05-20T06:35:55.735Z,89.67
2023-05-20T06:36:55.741Z,89.37
2023-05-20T06:37:55.751Z,89.58
2023-05-20T06:38:55.760Z,88.85
2023-05-20T06:39:55.692Z,89.43
2023-05-20T06:40:55.727Z,88.61
2023-05-20T06:41:55.687Z,88.41
2023-05-20T06:42:55.695Z,88.76
2023-05-20T06:43:55.701Z,88.92
2023-05-20T06:44:55.696Z,88.20
2023-05-20T06:45:55.689Z,88.20
2023-05-20T06:46:55.723Z,88.06
2023-05-20T06:47:55.692Z,88.00
2023-05-20T06:48:55.634Z,88.61
2023-05-20T06:49:55.705Z,88.71
2023-05-20T06:50:55.638Z,88.20
2023-05-20T06:51:55.595Z,88.20
2023-05-20T06:52:55.613Z,87.90
2023-05-20T06:53:55.591Z,88.26
2023-05-20T06:54:55.595Z,88.37
2023-05-20T06:55:55.603Z,88.47
2023-05-20T06:56:55.597Z,88.17
2023-05-20T06:57:55.589Z,87.85
2023-05-20T06:58:55.578Z,87.55
2023-05-20T06:59:55.545Z,87.85
2023-05-20T07:00:55.552Z,87.55
2023-05-20T07:01:55.591Z,88.37
2023-05-20T07:02:55.584Z,88.78
2023-05-20T07:03:55.543Z,88.26
2023-05-20T07:04:55.546Z,87.61
2023-05-20T07:05:55.491Z,87.85
2023-05-20T07:06:55.512Z,87.71
2023-05-20T07:07:55.513Z,87.85
2023-05-20T07:08:55.544Z,88.26
2023-05-20T07:09:55.471Z,88.06
2023-05-20T07:10:55.480Z,87.71
2023-05-20T07:11:55.451Z,87.92
2023-05-20T07:12:55.467Z,87.45
2023-05-20T07:13:55.472Z,88.17
2023-05-20T07:14:55.451Z,87.96
2023-05-20T07:15:55.449Z,88.57
2023-05-20T07:16:55.441Z,88.73
2023-05-20T07:17:55.456Z,88.22
2023-05-20T07:18:55.432Z,87.51
2023-05-20T07:19:55.386Z,88.12
2023-05-20T07:20:55.408Z,87.71
2023-05-20T07:21:55.374Z,86.39
2023-05-20T07:22:55.379Z,87.51
2023-05-20T07:23:55.374Z,87.82
2023-05-20T07:24:55.387Z,88.32
2023-05-20T07:25:55.346Z,88.02
2023-05-20T07:26:55.359Z,88.32
2023-05-20T07:27:55.348Z,88.32
2023-05-20T07:28:55.327Z,87.65
2023-05-20T07:29:55.312Z,88.63
2023-05-20T07:30:56.368Z,88.37
2023-05-20T07:31:55.303Z,88.12
2023-05-20T07:32:55.373Z,88.43
2023-05-20T07:33:55.282Z,87.37
2023-05-20T07:34:55.291Z,87.67
2023-05-20T07:35:55.285Z,86.35
2023-05-20T07:36:55.272Z,87.77
2023-05-20T07:37:55.248Z,87.82
2023-05-20T07:39:03.058Z,87.82
2023-05-20T07:39:56.276Z,88.02
2023-05-20T07:40:55.247Z,87.92
2023-05-20T07:41:55.209Z,88.43
2023-05-20T07:42:55.226Z,87.82
2023-05-20T07:43:55.216Z,87.61
2023-05-20T07:44:55.206Z,87.51
2023-05-20T07:45:55.191Z,87.41
2023-05-20T07:46:55.187Z,88.63
2023-05-20T07:47:55.202Z,88.26
2023-05-20T07:48:55.167Z,88.06
2023-05-20T07:49:55.183Z,88.26
2023-05-20T07:50:55.161Z,88.17
2023-05-20T07:51:55.171Z,88.53
2023-05-20T07:52:56.860Z,87.82
2023-05-20T07:53:55.149Z,87.71
2023-05-20T07:54:55.149Z,89.04
2023-05-20T07:55:55.118Z,88.02
2023-05-20T07:56:55.129Z,87.85
2023-05-20T07:57:55.078Z,88.02
2023-05-20T07:58:55.137Z,88.02
2023-05-20T07:59:55.082Z,87.88
2023-05-20T08:00:55.091Z,87.77
2023-05-20T08:01:55.103Z,87.76
2023-05-20T08:02:55.294Z,89.79
2023-05-20T08:03:55.207Z,88.84
2023-05-20T08:04:55.053Z,88.22
2023-05-20T08:05:55.026Z,88.32
2023-05-20T08:06:55.037Z,87.61
2023-05-20T08:07:55.026Z,88.02
2023-05-20T08:08:55.050Z,87.82
2023-05-20T08:09:54.998Z,87.82
2023-05-20T08:10:55.054Z,88.43
2023-05-20T08:11:54.992Z,88.02
2023-05-20T08:12:55.004Z,88.90
2023-05-20T08:13:54.980Z,88.08
2023-05-20T08:14:55.007Z,88.63
2023-05-20T08:15:54.977Z,87.82
2023-05-20T08:16:55.195Z,88.43
2023-05-20T08:17:55.016Z,89.75
2023-05-20T08:18:55.016Z,88.63
2023-05-20T08:19:54.924Z,87.61
2023-05-20T08:20:54.971Z,87.77
2023-05-20T08:21:54.925Z,87.47
2023-05-20T08:22:55.054Z,87.82
2023-05-20T08:23:54.906Z,88.12
2023-05-20T08:24:54.889Z,87.57
2023-05-20T08:25:54.903Z,87.67
2023-05-20T08:26:54.892Z,87.63
2023-05-20T08:27:54.901Z,86.16
2023-05-20T08:28:54.867Z,84.94
2023-05-20T08:29:54.844Z,86.24
2023-05-20T08:30:54.890Z,87.63
2023-05-20T08:31:54.847Z,86.00
2023-05-20T08:32:54.865Z,87.94
2023-05-20T08:33:54.842Z,87.63
2023-05-20T08:34:54.830Z,86.41
2023-05-20T08:35:54.822Z,87.73
2023-05-20T08:36:54.802Z,87.77
2023-05-20T08:37:54.779Z,86.41
2023-05-20T08:38:54.792Z,86.37
2023-05-20T08:39:54.797Z,86.71
2023-05-20T08:40:54.760Z,86.37
2023-05-20T08:41:54.747Z,86.06
2023-05-20T08:42:54.747Z,85.66
2023-05-20T08:43:54.780Z,85.75
2023-05-20T08:44:54.754Z,85.55
2023-05-20T08:45:54.776Z,85.35
2023-05-20T08:46:54.766Z,85.72
2023-05-20T08:47:54.757Z,85.45
2023-05-20T08:48:54.715Z,84.90
2023-05-20T08:49:54.707Z,85.06
2023-05-20T08:50:54.705Z,84.56
2023-05-20T08:51:54.697Z,84.59
2023-05-20T08:52:54.688Z,85.66
2023-05-20T08:53:54.684Z,85.96
2023-05-20T08:54:54.703Z,85.66
2023-05-20T08:55:54.644Z,86.68
2023-05-20T08:56:54.657Z,85.75
2023-05-20T08:57:54.642Z,86.47
2023-05-20T08:58:54.632Z,84.74
2023-05-20T08:59:54.614Z,85.72
2023-05-20T09:00:54.653Z,85.61
2023-05-20T09:01:54.628Z,84.43
2023-05-20T09:02:54.659Z,84.59
2023-05-20T09:03:54.595Z,84.90
2023-05-20T09:04:54.635Z,84.39
2023-05-20T09:05:54.573Z,84.50
2023-05-20T09:06:54.598Z,84.80
2023-05-20T09:07:54.550Z,84.35
2023-05-20T09:08:54.578Z,84.66
2023-05-20T09:09:54.529Z,84.59
2023-05-20T09:10:54.600Z,84.39
2023-05-20T09:11:54.529Z,85.92
2023-05-20T09:12:54.584Z,86.41
2023-05-20T09:13:54.508Z,86.06
2023-05-20T09:14:54.520Z,86.06
2023-05-20T09:15:54.502Z,85.61
2023-05-20T09:16:54.532Z,85.41
2023-05-20T09:17:54.629Z,84.70
2023-05-20T09:18:54.599Z,86.02
2023-05-20T09:19:54.471Z,84.70
2023-05-20T09:20:54.455Z,84.59
2023-05-20T09:21:54.449Z,84.35
2023-05-20T09:22:54.487Z,83.95
2023-05-20T09:23:54.441Z,83.98
2023-05-20T09:24:54.455Z,84.56
2023-05-20T09:25:54.404Z,83.70
2023-05-20T09:26:54.433Z,84.25
2023-05-20T09:27:54.396Z,84.15
2023-05-20T09:28:54.395Z,84.15
2023-05-20T09:29:54.407Z,83.64
2023-05-20T09:30:54.387Z,84.25
2023-05-20T09:31:54.418Z,83.84
2023-05-20T09:32:54.420Z,85.47
2023-05-20T09:33:54.348Z,83.54
2023-05-20T09:34:54.357Z,84.50
2023-05-20T09:35:54.354Z,84.39
2023-05-20T09:36:54.357Z,84.66
2023-05-20T09:37:54.342Z,84.59
2023-05-20T09:38:54.354Z,85.75
2023-05-20T09:39:54.303Z,85.31
2023-05-20T09:40:54.296Z,84.59
2023-05-20T09:41:54.312Z,85.61
2023-05-20T09:42:54.366Z,86.53
2023-05-20T09:43:54.287Z,84.74
2023-05-20T09:44:54.273Z,85.86
2023-05-20T09:45:54.278Z,86.06
2023-05-20T09:46:54.290Z,86.22
2023-05-20T09:47:54.298Z,86.06
2023-05-20T09:48:54.244Z,85.51
2023-05-20T09:49:54.229Z,84.35
2023-05-20T09:50:54.225Z,85.58
2023-05-20T09:51:54.206Z,84.76
2023-05-20T09:52:54.217Z,84.56
2023-05-20T09:53:54.209Z,85.68
2023-05-20T09:54:54.199Z,85.37
2023-05-20T09:55:54.173Z,84.21
2023-05-20T09:56:54.208Z,84.11
2023-05-20T09:57:54.158Z,84.52
2023-05-20T09:58:54.160Z,84.52
2023-05-20T09:59:54.176Z,83.60
2023-05-20T10:00:54.187Z,84.01
2023-05-20T10:01:54.277Z,83.60
2023-05-20T10:02:54.189Z,84.35
2023-05-20T10:03:54.277Z,84.45
2023-05-20T10:04:54.133Z,85.47
2023-05-20T10:05:54.102Z,85.88
2023-05-20T10:06:54.125Z,84.45
2023-05-20T10:07:54.107Z,85.58
2023-05-20T10:08:55.701Z,85.68
2023-05-20T10:09:54.064Z,85.06
2023-05-20T10:10:54.063Z,85.47
2023-05-20T10:11:54.063Z,84.56
2023-05-20T10:12:54.044Z,85.61
2023-05-20T10:13:54.041Z,86.13
2023-05-20T10:14:54.050Z,85.51
2023-05-20T10:15:54.056Z,86.59
2023-05-20T10:16:54.038Z,85.72
2023-05-20T10:17:54.098Z,86.43
2023-05-20T10:18:54.055Z,85.61
2023-05-20T10:19:54.004Z,85.61
2023-05-20T10:20:54.005Z,85.68
2023-05-20T10:21:53.975Z,84.45
2023-05-20T10:22:53.996Z,85.72
2023-05-20T10:23:53.968Z,85.78
2023-05-20T10:24:54.020Z,84.56
2023-05-20T10:25:53.932Z,84.82
2023-05-20T10:26:53.936Z,85.88
2023-05-20T10:27:53.920Z,84.35
2023-05-20T10:28:53.930Z,85.58
2023-05-20T10:29:53.932Z,85.27
2023-05-20T10:30:53.929Z,85.17
2023-05-20T10:31:53.912Z,85.98
2023-05-20T10:32:54.034Z,84.86
2023-05-20T10:33:53.924Z,85.27
2023-05-20T10:34:53.913Z,84.56
2023-05-20T10:35:53.851Z,84.92
2023-05-20T10:36:53.859Z,84.31
2023-05-20T10:37:53.830Z,83.50
2023-05-20T10:38:53.912Z,84.45
2023-05-20T10:39:53.824Z,84.42
2023-05-20T10:40:53.883Z,84.82
2023-05-20T10:41:53.799Z,84.45
2023-05-20T10:42:53.822Z,84.52
2023-05-20T10:43:53.784Z,84.01
2023-05-20T10:44:53.809Z,84.52
2023-05-20T10:45:53.785Z,83.56
2023-05-20T10:47:10.711Z,84.28
2023-05-20T10:47:54.891Z,83.76
2023-05-20T10:48:53.854Z,83.87
2023-05-20T10:49:53.729Z,84.28
2023-05-20T10:50:53.754Z,84.07
2023-05-20T10:51:53.735Z,83.81
2023-05-20T10:52:53.719Z,83.67
2023-05-20T10:53:53.707Z,84.07
2023-05-20T10:54:53.715Z,83.62
2023-05-20T10:55:53.711Z,83.42
2023-05-20T10:56:53.778Z,82.20
2023-05-20T10:57:53.667Z,82.95
2023-05-20T10:58:53.732Z,83.12
2023-05-20T10:59:53.653Z,82.78
2023-05-20T11:00:53.657Z,82.37
2023-05-20T11:01:53.653Z,81.86
2023-05-20T11:02:53.693Z,81.76
2023-05-20T11:03:53.699Z,81.90
2023-05-20T11:04:53.643Z,82.37
2023-05-20T11:05:53.598Z,82.23
2023-05-20T11:06:53.651Z,81.05
2023-05-20T11:07:53.579Z,81.72
2023-05-20T11:08:53.601Z,82.33
2023-05-20T11:09:53.577Z,81.66
2023-05-20T11:10:53.577Z,82.33
2023-05-20T11:11:53.545Z,80.91
2023-05-20T11:12:53.617Z,82.19
2023-05-20T11:13:53.528Z,80.57
2023-05-20T11:14:53.554Z,81.07
2023-05-20T11:15:53.518Z,79.65
2023-05-20T11:16:53.634Z,80.16
2023-05-20T11:17:53.595Z,80.19
2023-05-20T11:18:53.608Z,81.41
2023-05-20T11:19:53.485Z,81.31
2023-05-20T11:20:53.536Z,81.52
2023-05-20T11:21:53.471Z,81.31
2023-05-20T11:22:53.495Z,81.92
2023-05-20T11:23:53.474Z,80.71
2023-05-20T11:24:53.456Z,81.41
2023-05-20T11:25:53.439Z,81.01
2023-05-20T11:26:53.490Z,83.45
2023-05-20T11:27:53.497Z,82.23
2023-05-20T11:28:53.489Z,81.72
2023-05-20T11:29:53.436Z,82.33
2023-05-20T11:30:53.433Z,81.72
2023-05-20T11:31:53.454Z,81.92
2023-05-20T11:32:53.434Z,81.41
2023-05-20T11:33:53.372Z,81.62
2023-05-20T11:34:53.372Z,80.50
2023-05-20T11:35:53.375Z,81.18
2023-05-20T11:36:53.347Z,80.10
2023-05-20T11:37:53.361Z,79.96
2023-05-20T11:38:53.369Z,81.07
2023-05-20T11:39:54.252Z,80.36
2023-05-20T11:40:53.758Z,80.87
2023-05-20T11:41:53.293Z,79.21
2023-05-20T11:42:53.303Z,80.73
2023-05-20T11:43:53.281Z,79.38
2023-05-20T11:44:53.290Z,79.61
2023-05-20T11:45:53.296Z,80.93
2023-05-20T11:46:53.327Z,80.19
2023-05-20T11:47:53.322Z,79.27
2023-05-20T11:48:53.280Z,79.00
2023-05-20T11:49:53.251Z,78.60
2023-05-20T11:50:53.240Z,80.83
2023-05-20T11:51:53.245Z,79.98
2023-05-20T11:52:53.226Z,78.36
2023-05-20T11:53:53.181Z,79.24
2023-05-20T11:54:53.204Z,78.33
2023-05-20T11:55:53.172Z,79.54
2023-05-20T11:56:53.200Z,79.13
2023-05-20T11:57:53.158Z,77.92
2023-05-20T11:58:53.164Z,78.46
2023-05-20T11:59:53.185Z,78.66
2023-05-20T12:00:57.138Z,78.56
2023-05-20T12:01:54.165Z,79.58
2023-05-20T12:02:53.253Z,78.42
2023-05-20T12:03:53.321Z,78.26
2023-05-20T12:04:53.360Z,78.70
2023-05-20T12:05:53.085Z,78.26
2023-05-20T12:06:53.113Z,79.51
2023-05-20T12:07:53.815Z,79.38
2023-05-20T12:08:53.107Z,78.97
2023-05-20T12:09:53.047Z,79.17
2023-05-20T12:10:53.078Z,79.07
2023-05-20T12:11:53.047Z,78.19
2023-05-20T12:12:53.060Z,78.70
2023-05-20T12:13:53.018Z,78.60
2023-05-20T12:14:53.054Z,78.40
2023-05-20T12:15:53.015Z,78.06
2023-05-20T12:16:53.012Z,78.46
2023-05-20T12:17:53.012Z,78.33
2023-05-20T12:18:53.107Z,78.12
2023-05-20T12:19:52.967Z,77.28
2023-05-20T12:20:53.010Z,76.56
2023-05-20T12:21:52.962Z,78.73
2023-05-20T12:22:52.983Z,77.72
2023-05-20T12:23:52.940Z,77.31
2023-05-20T12:24:53.632Z,77.14
2023-05-20T12:25:52.914Z,78.97
2023-05-20T12:26:52.968Z,78.36
2023-05-20T12:27:52.935Z,78.53
2023-05-20T12:28:52.911Z,78.33
2023-05-20T12:29:52.922Z,78.66
2023-05-20T12:30:52.922Z,78.66
2023-05-20T12:31:52.926Z,77.95
2023-05-20T12:32:52.931Z,78.87
2023-05-20T12:33:52.860Z,78.77
2023-05-20T12:34:52.864Z,78.97
2023-05-20T12:35:52.834Z,78.73
2023-05-20T12:36:52.891Z,77.61
2023-05-20T12:37:52.819Z,79.13
2023-05-20T12:38:52.895Z,77.11
2023-05-20T12:39:52.797Z,78.53
2023-05-20T12:40:52.813Z,77.72
2023-05-20T12:41:52.829Z,76.97
2023-05-20T12:42:52.783Z,77.48
2023-05-20T12:43:52.762Z,76.97
2023-05-20T12:44:52.787Z,76.56
2023-05-20T12:45:52.743Z,77.41
2023-05-20T12:46:59.894Z,78.16
2023-05-20T12:47:52.783Z,78.36
2023-05-20T12:48:52.740Z,78.83
2023-05-20T12:49:52.718Z,78.33
2023-05-20T12:50:52.736Z,78.02
2023-05-20T12:51:52.713Z,78.06
2023-05-20T12:52:52.732Z,77.41